Airfield :
LOGIN :

Register | Disclaimer

   EN    FR    IT 

 










Legend :    VFR   Marginal VFR   IFR   Intensive IFR   Very Intensive IFR
Visi :
Ceiling :
>= 8 km
>= 3000ft
5 to 8 km
1000 to 3000 ft
1500m to 5 km
500 to 1000 ft
800 to 1500m
200 to 500 ft
< 800m
< 200 ft
Symbols :   Thunderstorms  Fog  Heavy snow  Heavy precipitations  Wind > 20 kt
SIGMETs :     Misc.  Thunderstorms  Icing  Turbulence  Mountain Waves  Volcanic Ashes






- Airport Elevation : 374 ft
- IATA code : LIS


LPPT - Lisboa Portela

CURRENT METAR :
  • 080630Z 07006KT 9999 SCT011 SCT042 07/06 Q1017

EXPIRED METARs :
  • 080600Z 07005KT 9999 FEW010 BKN012 07/06 Q1017
  • 080530Z 06004KT 030V110 9999 FEW010 SCT012 FEW020TCU 07/05 Q1016
  • 080500Z 06007KT 9999 FEW012 SCT016 FEW020TCU 07/05 Q1016
  • 080430Z 05005KT 9999 BKN014 07/05 Q1016
  • 080400Z 05007KT 9999 SCT016 07/05 Q1016
  • 080330Z 06006KT 9999 FEW018 07/05 Q1017

TAF TAF LPPT
Valid from the 08 at 06:00 until the 09 at 12:00 UTC


080500Z 0806/0912 08010KT 9999 SCT018 SCT035
TEMPO 0806/0822 8000 RA SCT008 BKN015 FEW025TCU
PROB30
TEMPO 0806/0820 10015G25KT 5000 TSRAGS SCT018CB
BECMG 0822/0824 SCT015
BECMG 0906/0908 04010KT



MET'MAP, your aeronautical weather chart ! - Copyright ORBIFLY December 2007 - Disclaimer

ORBIFLY MET'MAP TEAM :

Programming & Development : Alexandra Zaïnal
Original concept : Baudouin d'Aumeries
Technical & hardware support : Manuel Goepfert
Assistance : Marc-Olivier Méhu




SOURCES & CREDITS :

   NOAA